Terminal Aerodrome Forecast
Issued by NWS

Home | Current Version | Previous Version | Text Only | Print | Product List | Glossary On
Versions: 1 2 3 4 5 6 7 8 9 10 11 12 13 14 15
397
FTUS43 KLSX 051720
TAFCPS
TAF
KCPS 051720Z 0518/0618 30005KT P6SM BKN250
     FM060000 VRB03KT P6SM BKN100
     FM061500 24007KT P6SM BKN080=

USA.gov is the U.S. government's official web portal to all federal, state and local government web resources and services.